sensor_id;sensor_type;location;lat;lon;timestamp;pressure;altitude;pressure_sealevel;temperature;humidity
66524;BME280;53350;52.210;5.160;2024-03-23T00:53:49;101111.34;;;10.49;78.30
66524;BME280;53350;52.210;5.160;2024-03-23T00:56:15;101093.34;;;10.42;78.31
66524;BME280;53350;52.210;5.160;2024-03-23T00:58:41;101101.06;;;10.46;78.46
66524;BME280;53350;52.210;5.160;2024-03-23T01:01:07;101096.78;;;10.46;78.41
66524;BME280;53350;52.210;5.160;2024-03-23T01:03:33;101096.78;;;10.44;78.36
66524;BME280;53350;52.210;5.160;2024-03-23T01:05:59;101097.66;;;10.43;78.66
66524;BME280;53350;52.210;5.160;2024-03-23T01:08:25;101088.22;;;10.41;78.50
66524;BME280;53350;52.210;5.160;2024-03-23T01:10:56;101092.53;;;10.39;78.58
66524;BME280;53350;52.210;5.160;2024-03-23T01:13:22;101091.69;;;10.37;78.60
66524;BME280;53350;52.210;5.160;2024-03-23T01:15:49;101082.28;;;10.36;78.61
66524;BME280;53350;52.210;5.160;2024-03-23T01:18:14;101077.97;;;10.33;78.78
66524;BME280;53350;52.210;5.160;2024-03-23T01:20:41;101065.94;;;10.31;78.91
66524;BME280;53350;52.210;5.160;2024-03-23T01:23:06;101074.53;;;10.30;78.89
66524;BME280;53350;52.210;5.160;2024-03-23T01:25:33;101069.41;;;10.28;78.79
66524;BME280;53350;52.210;5.160;2024-03-23T01:27:59;101061.69;;;10.26;78.75
66524;BME280;53350;52.210;5.160;2024-03-23T01:30:26;101057.44;;;10.25;78.84
66524;BME280;53350;52.210;5.160;2024-03-23T01:32:51;101062.56;;;10.27;78.79
66524;BME280;53350;52.210;5.160;2024-03-23T01:35:18;101056.53;;;10.26;78.72
66524;BME280;53350;52.210;5.160;2024-03-23T01:37:43;101048.81;;;10.26;78.66
66524;BME280;53350;52.210;5.160;2024-03-23T01:40:11;101053.94;;;10.28;78.49
66524;BME280;53350;52.210;5.160;2024-03-23T01:42:38;101049.69;;;10.27;77.92
66524;BME280;53350;52.210;5.160;2024-03-23T01:45:08;101048.81;;;10.25;78.13
66524;BME280;53350;52.210;5.160;2024-03-23T01:47:34;101045.44;;;10.23;78.07
66524;BME280;53350;52.210;5.160;2024-03-23T01:50:00;101039.41;;;10.21;77.86
66524;BME280;53350;52.210;5.160;2024-03-23T01:52:26;101050.63;;;10.17;77.83
66524;BME280;53350;52.210;5.160;2024-03-23T01:54:53;101044.63;;;10.13;77.69
66524;BME280;53350;52.210;5.160;2024-03-23T01:57:19;101040.34;;;10.10;77.60
66524;BME280;53350;52.210;5.160;2024-03-23T01:59:46;101046.41;;;10.08;77.53
66524;BME280;53350;52.210;5.160;2024-03-23T02:02:13;101041.25;;;10.03;77.42
66524;BME280;53350;52.210;5.160;2024-03-23T02:04:39;101037.88;;;10.00;77.35
66524;BME280;53350;52.210;5.160;2024-03-23T02:07:06;101036.16;;;9.99;77.54
66524;BME280;53350;52.210;5.160;2024-03-23T02:09:33;101037.91;;;9.95;77.49
66524;BME280;53350;52.210;5.160;2024-03-23T02:11:58;101040.47;;;9.92;77.41
66524;BME280;53350;52.210;5.160;2024-03-23T02:14:25;101041.38;;;9.89;77.49
66524;BME280;53350;52.210;5.160;2024-03-23T02:16:50;101031.94;;;9.87;77.38
66524;BME280;53350;52.210;5.160;2024-03-23T02:19:18;101033.69;;;9.85;77.16
66524;BME280;53350;52.210;5.160;2024-03-23T02:21:43;101031.13;;;9.80;77.13
66524;BME280;53350;52.210;5.160;2024-03-23T02:24:13;101032.84;;;9.78;77.34
66524;BME280;53350;52.210;5.160;2024-03-23T02:26:38;101032.88;;;9.75;77.25
66524;BME280;53350;52.210;5.160;2024-03-23T02:29:05;101031.16;;;9.72;77.05
66524;BME280;53350;52.210;5.160;2024-03-23T02:31:30;101026.91;;;9.68;77.06
66524;BME280;53350;52.210;5.160;2024-03-23T02:33:57;101026.94;;;9.64;76.70
66524;BME280;53350;52.210;5.160;2024-03-23T02:36:22;101019.25;;;9.59;77.15
66524;BME280;53350;52.210;5.160;2024-03-23T02:38:48;101017.53;;;9.56;77.17
66524;BME280;53350;52.210;5.160;2024-03-23T02:41:15;101016.69;;;9.56;77.23
66524;BME280;53350;52.210;5.160;2024-03-23T02:43:48;101006.41;;;9.56;76.86
66524;BME280;53350;52.210;5.160;2024-03-23T02:46:14;101002.97;;;9.54;76.60
66524;BME280;53350;52.210;5.160;2024-03-23T02:48:40;101006.41;;;9.51;76.35
66524;BME280;53350;52.210;5.160;2024-03-23T02:51:05;101010.72;;;9.49;76.13
66524;BME280;53350;52.210;5.160;2024-03-23T02:53:32;101009.00;;;9.47;76.17
66524;BME280;53350;52.210;5.160;2024-03-23T02:55:57;101010.75;;;9.45;76.35
66524;BME280;53350;52.210;5.160;2024-03-23T02:58:25;101009.03;;;9.44;76.18
66524;BME280;53350;52.210;5.160;2024-03-23T03:00:51;101006.47;;;9.44;76.22
66524;BME280;53350;52.210;5.160;2024-03-23T03:03:17;101012.44;;;9.44;76.05
66524;BME280;53350;52.210;5.160;2024-03-23T03:05:43;101004.72;;;9.44;75.92
66524;BME280;53350;52.210;5.160;2024-03-23T03:08:09;101010.75;;;9.42;75.75
66524;BME280;53350;52.210;5.160;2024-03-23T03:10:35;101001.34;;;9.40;75.76
66524;BME280;53350;52.210;5.160;2024-03-23T03:13:01;101001.38;;;9.36;75.50
66524;BME280;53350;52.210;5.160;2024-03-23T03:15:28;101003.06;;;9.32;75.62
66524;BME280;53350;52.210;5.160;2024-03-23T03:17:55;101002.25;;;9.30;75.42
66524;BME280;53350;52.210;5.160;2024-03-23T03:20:20;101003.09;;;9.28;75.28
66524;BME280;53350;52.210;5.160;2024-03-23T03:22:48;101008.25;;;9.25;75.15
66524;BME280;53350;52.210;5.160;2024-03-23T03:25:14;101000.56;;;9.21;75.24
66524;BME280;53350;52.210;5.160;2024-03-23T03:27:40;101002.28;;;9.19;75.22
66524;BME280;53350;52.210;5.160;2024-03-23T03:30:07;101001.44;;;9.17;75.21
66524;BME280;53350;52.210;5.160;2024-03-23T03:32:35;100998.88;;;9.16;75.04
66524;BME280;53350;52.210;5.160;2024-03-23T03:35:00;100996.31;;;9.14;74.92
66524;BME280;53350;52.210;5.160;2024-03-23T03:37:27;100991.19;;;9.13;74.93
66524;BME280;53350;52.210;5.160;2024-03-23T03:39:53;100992.03;;;9.10;74.60
66524;BME280;53350;52.210;5.160;2024-03-23T03:42:19;100990.34;;;9.06;74.47
66524;BME280;53350;52.210;5.160;2024-03-23T03:44:44;100991.22;;;8.99;74.66
66524;BME280;53350;52.210;5.160;2024-03-23T03:47:11;100972.41;;;8.89;74.60
66524;BME280;53350;52.210;5.160;2024-03-23T03:49:38;100986.97;;;8.92;74.65
66524;BME280;53350;52.210;5.160;2024-03-23T03:52:04;100977.53;;;8.91;74.49
66524;BME280;53350;52.210;5.160;2024-03-23T03:54:30;100977.53;;;8.89;74.54
66524;BME280;53350;52.210;5.160;2024-03-23T03:56:56;100973.28;;;8.88;74.44
66524;BME280;53350;52.210;5.160;2024-03-23T03:59:22;100972.41;;;8.84;74.50
66524;BME280;53350;52.210;5.160;2024-03-23T04:01:48;100974.16;;;8.82;74.28
66524;BME280;53350;52.210;5.160;2024-03-23T04:04:14;100972.44;;;8.81;74.35
66524;BME280;53350;52.210;5.160;2024-03-23T04:06:43;100963.88;;;8.81;74.52
66524;BME280;53350;52.210;5.160;2024-03-23T04:09:09;100969.03;;;8.79;74.21
66524;BME280;53350;52.210;5.160;2024-03-23T04:11:35;100977.59;;;8.74;74.47
66524;BME280;53350;52.210;5.160;2024-03-23T04:14:01;100975.06;;;8.69;74.46
66524;BME280;53350;52.210;5.160;2024-03-23T04:16:27;100965.66;;;8.63;74.83
66524;BME280;53350;52.210;5.160;2024-03-23T04:18:53;100965.63;;;8.68;74.55
66524;BME280;53350;52.210;5.160;2024-03-23T04:21:20;100957.94;;;8.68;74.58
66524;BME280;53350;52.210;5.160;2024-03-23T04:23:47;100963.06;;;8.65;74.47
66524;BME280;53350;52.210;5.160;2024-03-23T04:26:13;100969.06;;;8.62;74.75
66524;BME280;53350;52.210;5.160;2024-03-23T04:28:39;100966.50;;;8.61;74.61
66524;BME280;53350;52.210;5.160;2024-03-23T04:31:05;100975.06;;;8.58;74.32
66524;BME280;53350;52.210;5.160;2024-03-23T04:33:31;100974.22;;;8.56;74.29
66524;BME280;53350;52.210;5.160;2024-03-23T04:35:57;100967.38;;;8.55;74.21
66524;BME280;53350;52.210;5.160;2024-03-23T04:38:23;100962.25;;;8.53;74.07
66524;BME280;53350;52.210;5.160;2024-03-23T04:40:55;100966.50;;;8.50;73.91
66524;BME280;53350;52.210;5.160;2024-03-23T04:43:21;100969.09;;;8.45;74.08
66524;BME280;53350;52.210;5.160;2024-03-23T04:45:48;100967.34;;;8.40;74.23
66524;BME280;53350;52.210;5.160;2024-03-23T04:48:14;100966.50;;;8.38;74.08
66524;BME280;53350;52.210;5.160;2024-03-23T04:50:41;100969.06;;;8.36;74.12
66524;BME280;53350;52.210;5.160;2024-03-23T04:53:07;100971.63;;;8.38;73.93
66524;BME280;53350;52.210;5.160;2024-03-23T04:55:34;100964.78;;;8.35;73.77
66524;BME280;53350;52.210;5.160;2024-03-23T04:58:01;100967.38;;;8.32;73.99
66524;BME280;53350;52.210;5.160;2024-03-23T05:00:28;100964.81;;;8.27;73.96
66524;BME280;53350;52.210;5.160;2024-03-23T05:02:54;100962.25;;;8.26;73.88
66524;BME280;53350;52.210;5.160;2024-03-23T05:05:21;100952.00;;;8.24;73.92
66524;BME280;53350;52.210;5.160;2024-03-23T05:07:46;100960.53;;;8.22;73.59
66524;BME280;53350;52.210;5.160;2024-03-23T05:10:13;100965.66;;;8.18;73.88
66524;BME280;53350;52.210;5.160;2024-03-23T05:12:39;100959.66;;;8.18;73.75
66524;BME280;53350;52.210;5.160;2024-03-23T05:15:07;100969.94;;;8.18;74.01
66524;BME280;53350;52.210;5.160;2024-03-23T05:17:33;100959.66;;;8.16;73.59
66524;BME280;53350;52.210;5.160;2024-03-23T05:20:00;100950.25;;;8.06;73.62
66524;BME280;53350;52.210;5.160;2024-03-23T05:22:25;100967.38;;;8.12;73.94
66524;BME280;53350;52.210;5.160;2024-03-23T05:24:53;100973.34;;;8.12;73.91
66524;BME280;53350;52.210;5.160;2024-03-23T05:27:18;100964.81;;;8.12;74.07
66524;BME280;53350;52.210;5.160;2024-03-23T05:29:45;100968.22;;;8.12;74.02
66524;BME280;53350;52.210;5.160;2024-03-23T05:32:11;100965.66;;;8.11;73.79
66524;BME280;53350;52.210;5.160;2024-03-23T05:34:38;100969.09;;;8.07;73.76
66524;BME280;53350;52.210;5.160;2024-03-23T05:37:03;100966.50;;;8.05;74.19
66524;BME280;53350;52.210;5.160;2024-03-23T05:39:30;100962.25;;;8.04;73.98
66524;BME280;53350;52.210;5.160;2024-03-23T05:41:55;100965.66;;;8.03;74.13
66524;BME280;53350;52.210;5.160;2024-03-23T05:44:22;100956.25;;;8.02;74.34
66524;BME280;53350;52.210;5.160;2024-03-23T05:46:47;100959.69;;;8.01;74.12
66524;BME280;53350;52.210;5.160;2024-03-23T05:49:15;100958.81;;;7.97;74.44
66524;BME280;53350;52.210;5.160;2024-03-23T05:51:42;100950.28;;;7.95;74.36
66524;BME280;53350;52.210;5.160;2024-03-23T05:54:08;100953.69;;;7.96;74.81
66524;BME280;53350;52.210;5.160;2024-03-23T05:56:34;100954.53;;;7.95;74.60
66524;BME280;53350;52.210;5.160;2024-03-23T05:59:00;100957.97;;;7.95;74.57
66524;BME280;53350;52.210;5.160;2024-03-23T06:01:28;100952.84;;;7.97;74.51
66524;BME280;53350;52.210;5.160;2024-03-23T06:03:54;100950.28;;;7.97;74.28
66524;BME280;53350;52.210;5.160;2024-03-23T06:06:22;100952.84;;;7.97;74.54
66524;BME280;53350;52.210;5.160;2024-03-23T06:08:47;100951.13;;;8.00;74.81
66524;BME280;53350;52.210;5.160;2024-03-23T06:11:14;100957.97;;;8.05;74.46
66524;BME280;53350;52.210;5.160;2024-03-23T06:13:39;100949.44;;;8.03;74.74
66524;BME280;53350;52.210;5.160;2024-03-23T06:16:06;100954.56;;;8.06;74.41
66524;BME280;53350;52.210;5.160;2024-03-23T06:18:32;100957.13;;;8.06;74.76
66524;BME280;53350;52.210;5.160;2024-03-23T06:20:58;100960.53;;;8.06;75.08
66524;BME280;53350;52.210;5.160;2024-03-23T06:23:25;100950.25;;;8.08;75.44
66524;BME280;53350;52.210;5.160;2024-03-23T06:25:51;100951.13;;;8.11;75.45
66524;BME280;53350;52.210;5.160;2024-03-23T06:28:17;100954.53;;;8.19;75.20
66524;BME280;53350;52.210;5.160;2024-03-23T06:30:46;100945.97;;;8.24;75.82
66524;BME280;53350;52.210;5.160;2024-03-23T06:33:11;100948.56;;;8.34;75.78
66524;BME280;53350;52.210;5.160;2024-03-23T06:35:38;100941.72;;;8.46;75.52
66524;BME280;53350;52.210;5.160;2024-03-23T06:38:04;100946.81;;;8.57;75.49
66524;BME280;53350;52.210;5.160;2024-03-23T06:40:31;100936.50;;;8.67;74.97
66524;BME280;53350;52.210;5.160;2024-03-23T06:42:57;100946.78;;;8.77;74.99
66524;BME280;53350;52.210;5.160;2024-03-23T06:45:23;100936.44;;;8.91;74.43
66524;BME280;53350;52.210;5.160;2024-03-23T06:47:49;100935.56;;;9.02;74.01
66524;BME280;53350;52.210;5.160;2024-03-23T06:50:16;100932.06;;;9.13;73.40
66524;BME280;53350;52.210;5.160;2024-03-23T06:52:42;100940.59;;;9.16;73.32
66524;BME280;53350;52.210;5.160;2024-03-23T06:55:08;100933.72;;;9.25;73.06
66524;BME280;53350;52.210;5.160;2024-03-23T06:57:35;100931.09;;;9.32;72.57
66524;BME280;53350;52.210;5.160;2024-03-23T07:00:02;100927.66;;;9.38;71.90
66524;BME280;53350;52.210;5.160;2024-03-23T07:02:28;100937.06;;;9.40;71.81
66524;BME280;53350;52.210;5.160;2024-03-23T07:04:54;100923.31;;;9.46;72.22
66524;BME280;53350;52.210;5.160;2024-03-23T07:07:20;100930.09;;;9.56;72.00
66524;BME280;53350;52.210;5.160;2024-03-23T07:09:47;100932.63;;;9.61;72.09
66524;BME280;53350;52.210;5.160;2024-03-23T07:12:12;100935.16;;;9.70;72.04
66524;BME280;53350;52.210;5.160;2024-03-23T07:14:40;100931.66;;;9.82;71.60
66524;BME280;53350;52.210;5.160;2024-03-23T07:17:06;100927.25;;;9.95;70.69
66524;BME280;53350;52.210;5.160;2024-03-23T07:19:32;100934.94;;;9.98;70.35
66524;BME280;53350;52.210;5.160;2024-03-23T07:21:58;100936.63;;;9.99;70.70
66524;BME280;53350;52.210;5.160;2024-03-23T07:24:24;100942.56;;;10.09;69.81
66524;BME280;53350;52.210;5.160;2024-03-23T07:26:50;100940.84;;;10.13;69.05
66524;BME280;53350;52.210;5.160;2024-03-23T07:29:19;100939.94;;;10.15;68.99
66524;BME280;53350;52.210;5.160;2024-03-23T07:31:46;100934.75;;;10.20;68.57
66524;BME280;53350;52.210;5.160;2024-03-23T07:34:12;100948.50;;;10.17;68.17
66524;BME280;53350;52.210;5.160;2024-03-23T07:36:38;100943.31;;;10.20;68.04
66524;BME280;53350;52.210;5.160;2024-03-23T07:39:05;100944.16;;;10.21;68.54
66524;BME280;53350;52.210;5.160;2024-03-23T07:41:30;100940.66;;;10.36;68.12
66524;BME280;53350;52.210;5.160;2024-03-23T07:43:57;100939.75;;;10.38;67.00
66524;BME280;53350;52.210;5.160;2024-03-23T07:46:22;100938.03;;;10.40;67.10
66524;BME280;53350;52.210;5.160;2024-03-23T07:48:51;100944.88;;;10.41;66.78
66524;BME280;53350;52.210;5.160;2024-03-23T07:51:18;100931.06;;;10.50;66.64
66524;BME280;53350;52.210;5.160;2024-03-23T07:53:45;100931.88;;;10.54;66.57
66524;BME280;53350;52.210;5.160;2024-03-23T07:56:11;100936.13;;;10.58;66.10
66524;BME280;53350;52.210;5.160;2024-03-23T07:58:38;100928.41;;;10.58;66.31
66524;BME280;53350;52.210;5.160;2024-03-23T08:01:04;100929.22;;;10.60;65.26
66524;BME280;53350;52.210;5.160;2024-03-23T08:03:33;100930.13;;;10.57;64.69
66524;BME280;53350;52.210;5.160;2024-03-23T08:06:06;100931.94;;;10.48;64.75
66524;BME280;53350;52.210;5.160;2024-03-23T08:08:32;100931.94;;;10.48;64.36
66524;BME280;53350;52.210;5.160;2024-03-23T08:10:58;100930.25;;;10.45;64.18
66524;BME280;53350;52.210;5.160;2024-03-23T08:13:24;100937.16;;;10.41;64.06
66524;BME280;53350;52.210;5.160;2024-03-23T08:15:50;100934.56;;;10.44;64.95
66524;BME280;53350;52.210;5.160;2024-03-23T08:18:16;100938.78;;;10.52;65.28
66524;BME280;53350;52.210;5.160;2024-03-23T08:20:42;100930.81;;;10.72;64.20
66524;BME280;53350;52.210;5.160;2024-03-23T08:23:09;100935.03;;;10.81;63.72
66524;BME280;53350;52.210;5.160;2024-03-23T08:25:35;100928.00;;;10.90;62.78
66524;BME280;53350;52.210;5.160;2024-03-23T08:28:01;100930.63;;;10.87;62.58
66524;BME280;53350;52.210;5.160;2024-03-23T08:30:28;100928.13;;;10.83;61.89
66524;BME280;53350;52.210;5.160;2024-03-23T08:32:54;100927.38;;;10.73;61.79
66524;BME280;53350;52.210;5.160;2024-03-23T08:35:19;100930.84;;;10.67;62.85
66524;BME280;53350;52.210;5.160;2024-03-23T08:37:46;100938.56;;;10.70;62.50
66524;BME280;53350;52.210;5.160;2024-03-23T08:40:13;100937.72;;;10.68;62.17
66524;BME280;53350;52.210;5.160;2024-03-23T08:42:39;100936.88;;;10.68;60.77
66524;BME280;53350;52.210;5.160;2024-03-23T08:45:05;100939.47;;;10.68;59.95
66524;BME280;53350;52.210;5.160;2024-03-23T08:47:34;100929.19;;;10.65;60.44
66524;BME280;53350;52.210;5.160;2024-03-23T08:50:00;100929.06;;;10.75;60.78
66524;BME280;53350;52.210;5.160;2024-03-23T08:52:26;100925.56;;;10.79;61.19
66524;BME280;53350;52.210;5.160;2024-03-23T08:54:53;100931.53;;;10.86;60.87
66524;BME280;53350;52.210;5.160;2024-03-23T08:57:22;100938.38;;;10.86;60.83
66524;BME280;53350;52.210;5.160;2024-03-23T08:59:47;100940.13;;;10.85;60.98
66524;BME280;53350;52.210;5.160;2024-03-23T09:02:14;100919.34;;;10.96;61.66
66524;BME280;53350;52.210;5.160;2024-03-23T09:04:40;100929.53;;;11.07;61.33
66524;BME280;53350;52.210;5.160;2024-03-23T09:07:06;100917.31;;;11.21;61.58
66524;BME280;53350;52.210;5.160;2024-03-23T09:09:32;100918.88;;;11.33;60.93
66524;BME280;53350;52.210;5.160;2024-03-23T09:11:58;100912.16;;;11.23;60.17
66524;BME280;53350;52.210;5.160;2024-03-23T09:14:25;100916.41;;;11.24;59.59
66524;BME280;53350;52.210;5.160;2024-03-23T09:16:52;100915.50;;;11.26;60.09
66524;BME280;53350;52.210;5.160;2024-03-23T09:19:17;100911.13;;;11.33;61.08
66524;BME280;53350;52.210;5.160;2024-03-23T09:21:44;100910.81;;;11.55;59.83
66524;BME280;53350;52.210;5.160;2024-03-23T09:24:09;100918.47;;;11.61;59.79
66524;BME280;53350;52.210;5.160;2024-03-23T09:26:36;100917.66;;;11.57;60.18
66524;BME280;53350;52.210;5.160;2024-03-23T09:29:01;100905.81;;;11.44;59.51
66524;BME280;53350;52.210;5.160;2024-03-23T09:31:30;100918.06;;;11.28;60.09
66524;BME280;53350;52.210;5.160;2024-03-23T09:33:57;100919.97;;;11.17;59.88
66524;BME280;53350;52.210;5.160;2024-03-23T09:36:23;100910.56;;;11.12;59.65
66524;BME280;53350;52.210;5.160;2024-03-23T09:38:48;100923.59;;;11.02;60.48
66524;BME280;53350;52.210;5.160;2024-03-23T09:41:15;100921.03;;;11.00;61.04
66524;BME280;53350;52.210;5.160;2024-03-23T09:43:41;100912.34;;;11.06;61.26
66524;BME280;53350;52.210;5.160;2024-03-23T09:46:07;100915.06;;;10.98;61.93
66524;BME280;53350;52.210;5.160;2024-03-23T09:48:34;100925.47;;;10.89;61.48
66524;BME280;53350;52.210;5.160;2024-03-23T09:51:02;100922.31;;;10.65;62.09
66524;BME280;53350;52.210;5.160;2024-03-23T09:53:28;100926.69;;;10.57;62.88
66524;BME280;53350;52.210;5.160;2024-03-23T09:55:55;100921.53;;;10.55;61.36
66524;BME280;53350;52.210;5.160;2024-03-23T09:58:23;100917.34;;;10.47;61.34
66524;BME280;53350;52.210;5.160;2024-03-23T10:00:49;100926.00;;;10.41;62.58
66524;BME280;53350;52.210;5.160;2024-03-23T10:03:15;100931.06;;;10.50;63.20
66524;BME280;53350;52.210;5.160;2024-03-23T10:05:43;100925.00;;;10.53;63.41
66524;BME280;53350;52.210;5.160;2024-03-23T10:08:17;100915.63;;;10.49;63.98
66524;BME280;53350;52.210;5.160;2024-03-23T10:10:45;100925.78;;;10.61;63.73
66524;BME280;53350;52.210;5.160;2024-03-23T10:13:11;100912.81;;;10.67;63.70
66524;BME280;53350;52.210;5.160;2024-03-23T10:15:38;100909.38;;;10.70;61.37
66524;BME280;53350;52.210;5.160;2024-03-23T10:18:17;100905.09;;;10.67;61.41
66524;BME280;53350;52.210;5.160;2024-03-23T10:20:51;100923.06;;;10.75;61.49
66524;BME280;53350;52.210;5.160;2024-03-23T10:23:17;100910.91;;;10.85;61.85
66524;BME280;53350;52.210;5.160;2024-03-23T10:25:44;100909.16;;;10.88;60.84
66524;BME280;53350;52.210;5.160;2024-03-23T10:28:10;100900.56;;;10.89;60.42
66524;BME280;53350;52.210;5.160;2024-03-23T10:30:37;100915.09;;;10.95;61.07
66524;BME280;53350;52.210;5.160;2024-03-23T10:33:07;100911.50;;;11.07;59.56
66524;BME280;53350;52.210;5.160;2024-03-23T10:35:34;100917.44;;;11.10;58.78
66524;BME280;53350;52.210;5.160;2024-03-23T10:38:02;100916.72;;;10.99;58.00
66524;BME280;53350;52.210;5.160;2024-03-23T10:40:29;100915.97;;;10.94;56.44
66524;BME280;53350;52.210;5.160;2024-03-23T10:42:57;100910.88;;;10.89;57.15
66524;BME280;53350;52.210;5.160;2024-03-23T10:45:23;100908.31;;;10.85;57.50
66524;BME280;53350;52.210;5.160;2024-03-23T10:47:51;100904.03;;;10.87;58.30
66524;BME280;53350;52.210;5.160;2024-03-23T10:50:17;100898.78;;;10.93;57.80
66524;BME280;53350;52.210;5.160;2024-03-23T10:52:46;100897.91;;;10.94;57.91
66524;BME280;53350;52.210;5.160;2024-03-23T10:55:14;100903.97;;;10.90;57.78
66524;BME280;53350;52.210;5.160;2024-03-23T10:57:44;100900.56;;;10.89;57.78
66524;BME280;53350;52.210;5.160;2024-03-23T11:00:11;100897.06;;;10.92;58.53
66524;BME280;53350;52.210;5.160;2024-03-23T11:02:38;100906.50;;;10.94;58.78
66524;BME280;53350;52.210;5.160;2024-03-23T11:05:28;100898.47;;;11.16;59.32
66524;BME280;53350;52.210;5.160;2024-03-23T11:07:54;100905.19;;;11.26;58.35
66524;BME280;53350;52.210;5.160;2024-03-23T11:10:29;100893.94;;;11.32;57.73
66524;BME280;53350;52.210;5.160;2024-03-23T11:12:55;100905.25;;;11.23;57.97
66524;BME280;53350;52.210;5.160;2024-03-23T11:15:21;100896.69;;;11.21;56.79
66524;BME280;53350;52.210;5.160;2024-03-23T11:18:04;100901.91;;;11.15;56.39
66524;BME280;53350;52.210;5.160;2024-03-23T11:20:34;100904.50;;;11.15;57.82
66524;BME280;53350;52.210;5.160;2024-03-23T11:23:01;100894.09;;;11.23;57.54
66524;BME280;53350;52.210;5.160;2024-03-23T11:25:29;100888.00;;;11.28;57.61
66524;BME280;53350;52.210;5.160;2024-03-23T11:27:56;100899.97;;;11.34;57.89
66524;BME280;53350;52.210;5.160;2024-03-23T11:30:23;100888.75;;;11.35;57.12
66524;BME280;53350;52.210;5.160;2024-03-23T11:32:51;100885.13;;;11.47;56.23
66524;BME280;53350;52.210;5.160;2024-03-23T11:35:27;100897.28;;;11.40;56.38
66524;BME280;53350;52.210;5.160;2024-03-23T11:38:04;100893.09;;;11.31;56.47
66524;BME280;53350;52.210;5.160;2024-03-23T11:40:32;100900.91;;;11.27;56.87
66524;BME280;53350;52.210;5.160;2024-03-23T11:43:00;100866.75;;;11.12;56.13
66524;BME280;53350;52.210;5.160;2024-03-23T11:45:26;100878.44;;;11.34;56.16
66524;BME280;53350;52.210;5.160;2024-03-23T11:48:05;100877.63;;;11.33;56.76
66524;BME280;53350;52.210;5.160;2024-03-23T11:50:31;100887.00;;;11.39;56.98
66524;BME280;53350;52.210;5.160;2024-03-23T11:53:08;100882.44;;;11.55;56.86
66524;BME280;53350;52.210;5.160;2024-03-23T11:55:46;100879.53;;;11.75;56.67
66524;BME280;53350;52.210;5.160;2024-03-23T11:58:14;100879.47;;;11.79;55.96
66524;BME280;53350;52.210;5.160;2024-03-23T12:00:40;100883.78;;;11.77;55.86
66524;BME280;53350;52.210;5.160;2024-03-23T12:03:07;100882.97;;;11.75;54.80
66524;BME280;53350;52.210;5.160;2024-03-23T12:05:33;100878.72;;;11.71;53.51
66524;BME280;53350;52.210;5.160;2024-03-23T12:08:18;100878.03;;;11.61;53.20
66524;BME280;53350;52.210;5.160;2024-03-23T12:10:48;100883.34;;;11.52;54.23
66524;BME280;53350;52.210;5.160;2024-03-23T12:13:19;100860.00;;;11.58;53.75
66524;BME280;53350;52.210;5.160;2024-03-23T12:15:45;100877.94;;;11.68;53.06
66524;BME280;53350;52.210;5.160;2024-03-23T12:18:12;100862.44;;;11.69;53.39
66524;BME280;53350;52.210;5.160;2024-03-23T12:20:38;100856.34;;;11.73;54.31
66524;BME280;53350;52.210;5.160;2024-03-23T12:23:06;100854.41;;;11.84;53.85
66524;BME280;53350;52.210;5.160;2024-03-23T12:25:32;100856.97;;;11.88;54.32
66524;BME280;53350;52.210;5.160;2024-03-23T12:28:00;100856.13;;;11.86;54.52
66524;BME280;53350;52.210;5.160;2024-03-23T12:30:26;100847.41;;;11.94;53.71
66524;BME280;53350;52.210;5.160;2024-03-23T12:32:52;100840.53;;;11.92;53.87
66524;BME280;53350;52.210;5.160;2024-03-23T12:35:18;100838.03;;;11.87;53.43
66524;BME280;53350;52.210;5.160;2024-03-23T12:37:44;100831.16;;;11.88;53.29
66524;BME280;53350;52.210;5.160;2024-03-23T12:40:10;100838.03;;;11.87;52.64
66524;BME280;53350;52.210;5.160;2024-03-23T12:42:37;100836.34;;;11.84;52.03
66524;BME280;53350;52.210;5.160;2024-03-23T12:45:05;100832.88;;;11.87;52.52
66524;BME280;53350;52.210;5.160;2024-03-23T12:47:31;100833.78;;;11.86;51.94
66524;BME280;53350;52.210;5.160;2024-03-23T12:49:57;100819.06;;;11.90;51.13
66524;BME280;53350;52.210;5.160;2024-03-23T12:52:24;100845.72;;;11.90;50.35
66524;BME280;53350;52.210;5.160;2024-03-23T12:54:53;100843.84;;;12.00;50.71
66524;BME280;53350;52.210;5.160;2024-03-23T12:57:21;100833.34;;;12.09;51.40
66524;BME280;53350;52.210;5.160;2024-03-23T12:59:47;100827.13;;;12.21;51.03
66524;BME280;53350;52.210;5.160;2024-03-23T13:02:18;100839.81;;;12.32;50.66
66524;BME280;53350;52.210;5.160;2024-03-23T13:04:44;100828.69;;;12.30;49.36
66524;BME280;53350;52.210;5.160;2024-03-23T13:07:11;100838.25;;;12.23;48.57
66524;BME280;53350;52.210;5.160;2024-03-23T13:09:38;100839.34;;;12.11;48.46
66524;BME280;53350;52.210;5.160;2024-03-23T13:12:05;100837.06;;;11.93;48.78
66524;BME280;53350;52.210;5.160;2024-03-23T13:14:31;100812.59;;;11.65;49.42
66524;BME280;53350;52.210;5.160;2024-03-23T13:16:57;100841.63;;;11.78;50.43
66524;BME280;53350;52.210;5.160;2024-03-23T13:19:24;100840.69;;;11.82;51.04
66524;BME280;53350;52.210;5.160;2024-03-23T13:21:53;100836.34;;;11.86;52.67
66524;BME280;53350;52.210;5.160;2024-03-23T13:24:21;100827.41;;;12.06;53.47
66524;BME280;53350;52.210;5.160;2024-03-23T13:26:49;100840.31;;;12.06;54.19
66524;BME280;53350;52.210;5.160;2024-03-23T13:29:15;100838.59;;;12.05;55.35
66524;BME280;53350;52.210;5.160;2024-03-23T13:31:41;100842.06;;;12.05;56.07
66524;BME280;53350;52.210;5.160;2024-03-23T13:34:07;100841.19;;;12.05;57.70
66524;BME280;53350;52.210;5.160;2024-03-23T13:36:35;100850.03;;;11.90;58.32
66524;BME280;53350;52.210;5.160;2024-03-23T13:39:01;100828.75;;;11.77;58.66
66524;BME280;53350;52.210;5.160;2024-03-23T13:41:30;100816.94;;;11.63;58.40
66524;BME280;53350;52.210;5.160;2024-03-23T13:43:56;100828.38;;;11.47;57.58
66524;BME280;53350;52.210;5.160;2024-03-23T13:46:23;100822.56;;;11.36;57.05